Vernon Springs, Iowa
Current Conditions -  °F | °C
As of 6:15 PM on Wednesday 26 Nov 2014 (Local Time) from KFKA Reporting Station
Light Snow Light Snow  
Wind Chill: 14°   Ceiling: 3600
Heat Index: 22°   Visibility: 4mi
Dew Point: 20°   Wind: 7mph
Humidity: 93%   Direction: 360°N
Pressure: 30.22"   Gusts: NA
Location:  43.363°N, 92.1685°W
Report Text: KFKA 270015Z AUTO 36006KT 4SM -SN SCT021 BKN036 OVC049 M05/M06 A3022 RMK AO2 T10551065
Loading
Personal Weather Stations






























Interactive Weather Map New forecast layout! Learn more

10-Day Weather Forecast

Advertisements
Track Severe Weather on mobile